首页
METAR-TAF:

METAR-TAF

机场 :

Quentin Aanenson Field

Luverne, 明尼蘇達州, 美国

纬度: 43-37-16N, 经度: 096-12-58W, 海拔: 436米

当前天气观测

该预报发布于30分钟前的18:16 UTC
风速7节,风向南转南东
温度 28°C
湿度 35%
气压 1009 hPa
能見度: 16.1公里
散云层高于9000英尺

METAR: KLYV 041816Z AUTO 15007KT 10SM SCT090 28/11 A2979 RMK AO2

时间: 13:46 (18:46 UTC)


TAF: 丢失

超过4000个机场的气象观测和天气预报(METAR&TAF报告)。

可查询的气象台以黄色和红色小点在地图上表示。

将鼠标移到小点上方,可查看气象台名称。

然后点击查看天气观测和预报。

如需切换地图:点击带黑十字的绿色按钮放大地图;点击带横线的绿色按钮缩小地图;或者点击绿色箭头查看邻近地区的地图。


METAR-TAF: